Time;durP1;ratioP1;P1;durP2;ratioP2;P2;SDS_P1;SDS_P2;PMS_P1;PMS_P2;Temp;Humidity;BMP_temperature;BMP_pressure;BME280_temperature;BME280_humidity;BME280_pressure;Samples;Min_cycle;Max_cycle;Signal;HPM_P1;HPM_P2
2023/04/27 00:00:28;;;;;;;0.00;0.00;;;;;;;5.90;64.23;100495.19;6253793;22;20094;-72
2023/04/27 00:02:54;;;;;;;0.00;0.00;;;;;;;5.89;63.82;100490.81;6248306;22;20078;-72
2023/04/27 00:05:19;;;;;;;0.00;0.00;;;;;;;5.84;63.76;100469.00;6218813;22;20007;-71
2023/04/27 00:07:45;;;;;;;0.00;0.00;;;;;;;5.91;64.16;100491.44;6274725;22;20049;-72
2023/04/27 00:10:11;;;;;;;0.00;0.00;;;;;;;5.90;64.33;100478.09;6268379;22;20038;-73
2023/04/27 00:12:37;;;;;;;0.00;0.00;;;;;;;5.93;63.87;100478.44;6274581;22;20098;-73
2023/04/27 00:15:03;;;;;;;0.00;0.00;;;;;;;5.88;63.97;100470.16;6270433;22;20003;-72
2023/04/27 00:17:28;;;;;;;0.00;0.00;;;;;;;5.92;63.96;100465.09;6271658;22;20019;-73
2023/04/27 00:19:54;;;;;;;0.00;0.00;;;;;;;5.91;64.55;100458.88;6223738;22;20011;-72
2023/04/27 00:22:19;;;;;;;0.00;0.00;;;;;;;5.88;64.39;100455.78;6240937;22;20034;-72
2023/04/27 00:24:45;;;;;;;0.00;0.00;;;;;;;5.85;64.50;100454.34;6247153;22;20014;-73
2023/04/27 00:27:12;;;;;;;0.00;0.00;;;;;;;5.81;64.35;100452.34;6272688;22;20031;-72
2023/04/27 00:29:41;;;;;;;0.00;0.00;;;;;;;5.84;65.02;100468.16;6217376;22;20345;-72
2023/04/27 00:32:09;;;;;;;0.00;0.00;;;;;;;5.80;65.29;100461.53;6301736;22;20395;-72
2023/04/27 00:34:35;;;;;;;0.00;0.00;;;;;;;5.79;64.50;100463.44;6263781;22;20013;-72
2023/04/27 00:37:00;;;;;;;0.10;0.10;;;;;;;5.85;65.13;100458.97;6270759;22;20392;-73
2023/04/27 00:39:26;;;;;;;0.10;0.10;;;;;;;5.92;64.53;100465.94;6218163;22;20090;-71
2023/04/27 00:41:51;;;;;;;0.00;0.00;;;;;;;5.99;65.19;100455.00;6246338;22;20068;-72
2023/04/27 00:44:24;;;;;;;0.08;0.08;;;;;;;6.18;65.28;100463.03;6245993;22;20089;-71
2023/04/27 00:46:51;;;;;;;0.00;0.00;;;;;;;6.32;64.88;100459.00;6294788;22;20507;-73
2023/04/27 00:49:16;;;;;;;0.05;0.05;;;;;;;6.46;64.32;100452.25;6274119;22;20003;-73
2023/04/27 00:51:42;;;;;;;0.00;0.00;;;;;;;6.62;64.41;100449.88;6296340;22;20014;-71
2023/04/27 00:54:08;;;;;;;0.00;0.00;;;;;;;6.74;64.36;100447.16;6247577;22;20030;-71
2023/04/27 00:56:33;;;;;;;0.00;0.00;;;;;;;6.85;63.69;100445.44;6267833;22;20035;-72
2023/04/27 00:58:58;;;;;;;0.00;0.00;;;;;;;7.00;63.40;100443.06;6247604;22;20003;-72
2023/04/27 01:01:24;;;;;;;0.08;0.08;;;;;;;7.08;63.22;100450.84;6244540;22;20386;-72
2023/04/27 01:03:50;;;;;;;0.00;0.00;;;;;;;7.08;63.86;100436.41;6247431;22;20007;-72
2023/04/27 01:06:15;;;;;;;0.10;0.10;;;;;;;7.19;62.91;100445.59;6244769;22;20076;-72
2023/04/27 01:08:41;;;;;;;0.00;0.00;;;;;;;7.23;63.56;100427.69;6295865;22;20034;-71
2023/04/27 01:11:06;;;;;;;0.10;0.10;;;;;;;7.28;63.42;100428.63;6223803;22;20015;-72
2023/04/27 01:13:32;;;;;;;0.00;0.00;;;;;;;7.36;63.01;100438.31;6269101;22;20031;-73
2023/04/27 01:15:57;;;;;;;0.00;0.00;;;;;;;7.48;62.54;100452.66;6213285;22;20323;-76
2023/04/27 01:18:24;;;;;;;0.00;0.00;;;;;;;7.50;63.66;100446.97;6266022;22;20023;-76
2023/04/27 01:20:49;;;;;;;0.00;0.00;;;;;;;7.50;62.94;100442.38;6269189;22;20011;-76
2023/04/27 01:23:15;;;;;;;0.00;0.00;;;;;;;7.56;62.57;100450.59;6242390;22;20338;-75
2023/04/27 01:25:40;;;;;;;0.00;0.00;;;;;;;7.58;62.90;100448.47;6213751;22;20035;-75
2023/04/27 01:28:06;;;;;;;0.00;0.00;;;;;;;7.64;62.27;100455.66;6217061;22;20008;-75
2023/04/27 01:30:31;;;;;;;0.00;0.00;;;;;;;7.69;62.22;100455.72;6266649;22;20004;-73
2023/04/27 01:32:56;;;;;;;0.00;0.00;;;;;;;7.74;63.17;100457.72;6264368;22;20053;-72
2023/04/27 01:35:22;;;;;;;0.00;0.00;;;;;;;7.73;62.46;100456.91;6243149;22;20014;-72
2023/04/27 01:37:47;;;;;;;0.00;0.00;;;;;;;7.78;63.02;100459.72;6239217;22;20040;-72
2023/04/27 01:40:13;;;;;;;0.00;0.00;;;;;;;7.80;62.30;100459.47;6240448;22;20008;-74
2023/04/27 01:42:38;;;;;;;0.08;0.08;;;;;;;7.81;62.80;100456.50;6189511;22;20014;-73
2023/04/27 01:45:04;;;;;;;0.00;0.00;;;;;;;7.82;62.75;100449.16;6244602;22;20082;-73
2023/04/27 01:47:30;;;;;;;0.00;0.00;;;;;;;7.85;62.81;100460.34;6233194;22;20011;-71
2023/04/27 01:49:55;;;;;;;0.10;0.10;;;;;;;7.87;62.36;100468.31;6243066;22;20019;-73
2023/04/27 01:52:21;;;;;;;0.00;0.00;;;;;;;7.83;62.44;100457.06;6263847;22;20012;-72
2023/04/27 01:54:46;;;;;;;0.00;0.00;;;;;;;7.91;62.80;100465.91;6191553;22;20010;-72
2023/04/27 01:57:13;;;;;;;0.00;0.00;;;;;;;7.93;61.95;100461.03;6238050;22;20319;-71
2023/04/27 01:59:38;;;;;;;0.00;0.00;;;;;;;7.92;62.43;100462.13;6240423;22;20022;-72
2023/04/27 02:02:04;;;;;;;0.00;0.00;;;;;;;7.93;62.88;100461.88;6216039;22;20027;-72
2023/04/27 02:04:29;;;;;;;0.00;0.00;;;;;;;7.96;62.71;100457.81;6236623;22;20004;-72
2023/04/27 02:06:54;;;;;;;0.00;0.00;;;;;;;7.91;62.45;100447.66;6241046;22;20577;-72
2023/04/27 02:09:20;;;;;;;0.00;0.00;;;;;;;7.94;62.52;100435.44;6215188;22;20008;-73
2023/04/27 02:11:45;;;;;;;0.00;0.00;;;;;;;7.95;62.09;100437.09;6262439;22;20027;-72
2023/04/27 02:14:11;;;;;;;0.00;0.00;;;;;;;7.96;62.32;100438.75;6215852;22;20433;-73
2023/04/27 02:16:36;;;;;;;0.00;0.00;;;;;;;7.93;62.08;100434.63;6259921;22;20020;-72
2023/04/27 02:19:03;;;;;;;0.00;0.00;;;;;;;7.97;63.08;100429.50;6265719;22;20011;-73
2023/04/27 02:21:29;;;;;;;0.00;0.00;;;;;;;7.98;62.31;100436.59;6237700;22;20015;-75
2023/04/27 02:23:54;;;;;;;0.00;0.00;;;;;;;8.02;62.10;100432.31;6219687;22;20014;-76
2023/04/27 02:26:27;;;;;;;0.00;0.00;;;;;;;8.04;62.99;100430.16;6269513;22;20049;-76
2023/04/27 02:28:53;;;;;;;0.10;0.10;;;;;;;8.07;62.93;100421.47;6270115;22;20004;-74
2023/04/27 02:31:19;;;;;;;0.00;0.00;;;;;;;8.08;62.59;100428.59;6266792;22;20037;-76
2023/04/27 02:33:45;;;;;;;0.00;0.00;;;;;;;8.10;62.36;100423.72;6289737;22;20071;-76
2023/04/27 02:36:10;;;;;;;0.00;0.00;;;;;;;8.11;62.23;100409.03;6245650;22;20047;-75
2023/04/27 02:38:36;;;;;;;0.00;0.00;;;;;;;8.15;62.96;100410.19;6238394;22;20851;-77
2023/04/27 02:41:01;;;;;;;0.00;0.00;;;;;;;8.17;62.89;100407.19;6244663;22;20017;-76
2023/04/27 02:43:26;;;;;;;0.00;0.00;;;;;;;8.19;63.01;100405.03;6275388;22;20384;-73
2023/04/27 02:45:52;;;;;;;0.00;0.00;;;;;;;8.18;63.27;100390.59;6214078;22;20576;-75
2023/04/27 02:48:17;;;;;;;0.00;0.00;;;;;;;8.21;63.39;100392.81;6219283;22;20035;-75
2023/04/27 02:50:43;;;;;;;0.00;0.00;;;;;;;8.20;63.69;100396.63;6259433;22;20126;-75
2023/04/27 02:53:10;;;;;;;0.10;0.10;;;;;;;8.19;63.93;100392.25;6247569;22;20670;-76
2023/04/27 02:55:36;;;;;;;0.00;0.00;;;;;;;8.21;63.88;100392.81;6240266;22;20015;-75
2023/04/27 02:58:01;;;;;;;0.00;0.00;;;;;;;8.27;63.90;100398.34;6297264;22;20052;-75
2023/04/27 03:00:27;;;;;;;0.00;0.00;;;;;;;8.27;63.94;100384.75;6270777;22;20007;-75
2023/04/27 03:02:52;;;;;;;0.00;0.00;;;;;;;8.27;63.21;100371.13;6266474;22;20342;-75
2023/04/27 03:05:18;;;;;;;0.10;0.10;;;;;;;8.26;63.98;100373.00;6243430;22;20007;-73
2023/04/27 03:07:43;;;;;;;0.00;0.00;;;;;;;8.27;64.17;100369.19;6262589;22;20015;-75
2023/04/27 03:10:09;;;;;;;0.00;0.00;;;;;;;8.31;63.65;100377.69;6296827;22;20015;-74
2023/04/27 03:12:34;;;;;;;0.00;0.00;;;;;;;8.31;64.31;100374.97;6290119;22;20427;-75
2023/04/27 03:15:00;;;;;;;0.03;0.03;;;;;;;8.29;64.48;100371.69;6268793;22;20350;-75
2023/04/27 03:17:26;;;;;;;0.10;0.10;;;;;;;8.27;64.19;100373.84;6269383;22;20327;-75
2023/04/27 03:19:51;;;;;;;0.00;0.00;;;;;;;8.27;65.00;100374.66;6265563;22;20011;-76
2023/04/27 03:22:17;;;;;;;0.00;0.00;;;;;;;8.27;64.35;100365.66;6244035;22;20020;-76
2023/04/27 03:24:43;;;;;;;0.00;0.00;;;;;;;8.27;64.16;100357.50;6266169;22;20011;-75
2023/04/27 03:27:08;;;;;;;0.00;0.00;;;;;;;8.33;65.06;100367.38;6268481;22;20030;-75
2023/04/27 03:29:34;;;;;;;0.00;0.00;;;;;;;8.35;64.87;100360.59;6265658;22;20441;-75
2023/04/27 03:31:59;;;;;;;0.03;0.03;;;;;;;8.35;64.88;100355.16;6270552;22;20014;-76
2023/04/27 03:34:25;;;;;;;0.00;0.00;;;;;;;8.34;65.11;100347.25;6270186;22;20087;-76
2023/04/27 03:36:50;;;;;;;0.00;0.00;;;;;;;8.36;64.71;100350.53;6265771;22;20004;-76
2023/04/27 03:39:16;;;;;;;0.00;0.00;;;;;;;8.42;64.52;100354.94;6267656;22;20016;-76
2023/04/27 03:41:41;;;;;;;0.00;0.00;;;;;;;8.40;65.04;100351.66;6266291;22;20010;-75
2023/04/27 03:44:07;;;;;;;0.00;0.00;;;;;;;8.41;64.88;100350.59;6243227;22;20022;-75
2023/04/27 03:46:32;;;;;;;0.00;0.00;;;;;;;8.38;64.96;100342.91;6272189;22;20038;-75
2023/04/27 03:48:58;;;;;;;0.00;0.00;;;;;;;8.38;65.36;100342.91;6266946;22;20011;-76
2023/04/27 03:51:23;;;;;;;0.08;0.08;;;;;;;8.35;65.66;100337.97;6271284;22;20003;-76
2023/04/27 03:53:49;;;;;;;0.00;0.00;;;;;;;8.34;65.03;100331.69;6265576;22;20007;-74
2023/04/27 03:56:15;;;;;;;0.00;0.00;;;;;;;8.35;65.85;100343.41;6270544;22;20338;-75
2023/04/27 03:58:40;;;;;;;0.00;0.00;;;;;;;8.34;65.70;100337.16;6268244;22;20007;-76
2023/04/27 04:01:08;;;;;;;0.00;0.00;;;;;;;8.33;65.71;100342.84;6265896;22;20007;-76
2023/04/27 04:03:35;;;;;;;0.00;0.00;;;;;;;8.31;65.65;100342.25;6267699;22;20018;-74
2023/04/27 04:06:02;;;;;;;0.00;0.00;;;;;;;8.28;66.37;100331.88;6265770;22;21064;-77
2023/04/27 04:08:28;;;;;;;0.00;0.00;;;;;;;8.29;65.64;100325.34;6270016;22;20019;-75
2023/04/27 04:10:55;;;;;;;0.00;0.00;;;;;;;8.24;66.01;100320.69;6266822;22;20016;-75
2023/04/27 04:13:21;;;;;;;0.00;0.00;;;;;;;8.28;66.80;100323.69;6270345;22;20126;-75
2023/04/27 04:15:46;;;;;;;0.00;0.00;;;;;;;8.28;66.08;100320.97;6274936;22;20439;-76
2023/04/27 04:18:12;;;;;;;0.10;0.10;;;;;;;8.27;66.40;100319.34;6298299;22;20007;-76
2023/04/27 04:20:37;;;;;;;0.00;0.00;;;;;;;8.28;67.17;100323.69;6248791;22;20018;-75
2023/04/27 04:23:02;;;;;;;0.00;0.00;;;;;;;8.25;67.00;100326.94;6244655;22;20022;-75
2023/04/27 04:25:28;;;;;;;0.00;0.00;;;;;;;8.26;66.75;100323.16;6248789;22;20444;-76
2023/04/27 04:27:53;;;;;;;0.00;0.00;;;;;;;8.17;67.11;100315.41;6270866;22;20498;-76
2023/04/27 04:30:19;;;;;;;0.10;0.10;;;;;;;8.23;67.40;100318.22;6273539;22;20011;-75
2023/04/27 04:32:44;;;;;;;0.00;0.00;;;;;;;8.21;67.15;100316.53;6273667;22;20111;-76
2023/04/27 04:35:10;;;;;;;0.00;0.00;;;;;;;8.22;67.20;100311.94;6242621;22;20425;-75
2023/04/27 04:37:36;;;;;;;0.00;0.00;;;;;;;8.30;67.40;100318.84;6274898;22;20003;-76
2023/04/27 04:40:07;;;;;;;0.00;0.00;;;;;;;8.32;67.73;100311.22;6301078;22;20003;-74
2023/04/27 04:42:35;;;;;;;0.08;0.08;;;;;;;8.36;67.06;100312.38;6274254;22;20094;-75
2023/04/27 04:45:02;;;;;;;0.00;0.00;;;;;;;8.36;67.51;100304.19;6274317;22;19999;-76
2023/04/27 04:47:30;;;;;;;0.00;0.00;;;;;;;8.39;67.79;100290.06;6268324;22;20003;-76
2023/04/27 04:49:56;;;;;;;0.08;0.08;;;;;;;8.44;67.80;100301.06;6275493;22;20007;-77
2023/04/27 04:52:21;;;;;;;0.08;0.08;;;;;;;8.43;67.40;100302.09;6297617;22;20094;-76
2023/04/27 04:54:46;;;;;;;0.10;0.10;;;;;;;8.49;67.99;100311.19;6274335;22;20022;-76
2023/04/27 04:57:12;;;;;;;0.00;0.00;;;;;;;8.46;67.40;100309.81;6244415;22;20034;-75
2023/04/27 04:59:37;;;;;;;0.00;0.00;;;;;;;8.48;67.82;100307.63;6249088;22;20034;-76
2023/04/27 05:02:03;;;;;;;0.00;0.00;;;;;;;8.51;67.66;100315.31;6302344;22;20070;-76
2023/04/27 05:04:28;;;;;;;0.00;0.00;;;;;;;8.52;67.72;100311.50;6269125;22;20014;-76
2023/04/27 05:06:53;;;;;;;0.00;0.00;;;;;;;8.51;67.86;100301.69;6249628;22;20007;-77
2023/04/27 05:09:19;;;;;;;0.00;0.00;;;;;;;8.53;68.16;100296.81;6245070;22;21088;-77
2023/04/27 05:11:44;;;;;;;0.00;0.00;;;;;;;8.52;67.86;100284.25;6272522;22;20359;-76
2023/04/27 05:14:10;;;;;;;0.10;0.10;;;;;;;8.60;68.26;100295.78;6297720;22;20371;-75
2023/04/27 05:16:35;;;;;;;0.00;0.00;;;;;;;8.63;68.30;100295.25;6246000;22;20022;-77
2023/04/27 05:19:00;;;;;;;0.00;0.00;;;;;;;8.63;68.26;100290.66;6249868;22;20108;-75
2023/04/27 05:21:26;;;;;;;0.00;0.00;;;;;;;8.68;67.90;100295.31;6244222;22;20145;-75
2023/04/27 05:23:51;;;;;;;0.00;0.00;;;;;;;8.70;67.91;100295.88;6274278;22;20086;-77
2023/04/27 05:26:17;;;;;;;0.00;0.00;;;;;;;8.73;68.32;100306.25;6244151;22;20011;-73
2023/04/27 05:28:43;;;;;;;0.10;0.10;;;;;;;8.73;67.98;100311.72;6249019;22;20026;-73
2023/04/27 05:31:09;;;;;;;0.00;0.00;;;;;;;8.78;68.79;100319.97;6270562;22;20095;-73
2023/04/27 05:33:39;;;;;;;0.00;0.00;;;;;;;8.71;69.16;100297.53;6246805;22;20038;-74
2023/04/27 05:36:08;;;;;;;0.00;0.00;;;;;;;8.71;68.95;100283.91;6301815;22;20016;-74
2023/04/27 05:38:38;;;;;;;0.00;0.00;;;;;;;8.82;68.39;100293.84;6220388;22;20019;-73
2023/04/27 05:41:25;;;;;;;;;;;;;;;;;;;;;
2023/04/27 05:43:53;;;;;;;0.00;0.00;;;;;;;8.98;68.35;100285.78;6278754;22;20764;-77
2023/04/27 05:46:19;;;;;;;0.03;0.03;;;;;;;8.99;68.69;100280.06;6274427;22;20003;-77
2023/04/27 05:49:02;;;;;;;0.00;0.00;;;;;;;9.24;68.64;100309.50;6220720;22;20008;-78
2023/04/27 05:51:31;;;;;;;0.00;0.00;;;;;;;9.21;68.73;100307.28;6302963;22;20072;-76
2023/04/27 05:54:06;;;;;;;;;;;;;;;;;;;;;
2023/04/27 05:56:36;;;;;;;0.10;0.10;;;;;;;9.17;68.66;100295.25;6302882;22;20078;-78
2023/04/27 05:59:17;;;;;;;;;;;;;;;;;;;;;
2023/04/27 06:01:45;;;;;;;0.00;0.00;;;;;;;9.31;68.71;100286.63;6301092;22;20094;-76
2023/04/27 06:04:10;;;;;;;0.00;0.00;;;;;;;9.39;68.72;100269.78;6297793;22;20029;-76
2023/04/27 06:06:35;;;;;;;0.00;0.00;;;;;;;9.59;69.36;100280.84;6275380;22;19995;-76
2023/04/27 06:09:10;;;;;;;0.00;0.00;;;;;;;9.69;68.47;100285.50;6298107;22;20010;-77
2023/04/27 06:11:36;;;;;;;0.00;0.00;;;;;;;9.80;68.44;100275.50;6249605;22;20133;-77
2023/04/27 06:14:01;;;;;;;0.00;0.00;;;;;;;9.80;68.12;100259.09;6299415;22;20041;-75
2023/04/27 06:16:27;;;;;;;0.00;0.00;;;;;;;9.99;68.39;100267.66;6243431;22;20129;-76
2023/04/27 06:18:52;;;;;;;0.00;0.00;;;;;;;10.02;68.57;100271.78;6248644;22;20115;-73
2023/04/27 06:21:18;;;;;;;0.00;0.00;;;;;;;10.21;68.38;100288.53;6268242;22;20007;-76
2023/04/27 06:23:43;;;;;;;0.05;0.05;;;;;;;10.16;67.91;100283.03;6272208;22;20039;-73
2023/04/27 06:26:09;;;;;;;0.00;0.00;;;;;;;10.18;68.50;100294.50;6269554;22;19995;-74
2023/04/27 06:28:34;;;;;;;0.00;0.00;;;;;;;10.03;68.19;100273.41;6275396;22;20072;-73
2023/04/27 06:30:59;;;;;;;0.00;0.00;;;;;;;10.19;68.44;100283.34;6222747;22;20087;-76
2023/04/27 06:33:26;;;;;;;0.00;0.00;;;;;;;10.18;68.17;100273.50;6245334;22;20003;-76
2023/04/27 06:35:52;;;;;;;0.00;0.00;;;;;;;10.29;68.53;100298.94;6302712;22;20007;-76
2023/04/27 06:38:17;;;;;;;0.00;0.00;;;;;;;10.15;68.51;100271.28;6247382;22;20506;-78
2023/04/27 06:40:44;;;;;;;0.00;0.00;;;;;;;10.18;68.12;100283.56;6276524;22;20015;-77
2023/04/27 06:43:10;;;;;;;0.00;0.00;;;;;;;10.16;68.46;100283.84;6274593;22;19999;-74
2023/04/27 06:45:35;;;;;;;0.00;0.00;;;;;;;10.16;68.98;100286.59;6249038;22;20429;-75
2023/04/27 06:48:01;;;;;;;0.00;0.00;;;;;;;10.06;69.03;100289.25;6275549;22;20456;-78
2023/04/27 06:50:26;;;;;;;0.00;0.00;;;;;;;10.06;68.69;100294.72;6299716;22;19999;-75
2023/04/27 06:52:52;;;;;;;0.10;0.10;;;;;;;10.06;69.17;100294.72;6303504;22;20003;-76
2023/04/27 06:55:17;;;;;;;0.00;0.00;;;;;;;10.05;69.31;100279.44;6276559;22;20011;-76
2023/04/27 06:57:43;;;;;;;0.00;0.00;;;;;;;10.20;69.58;100301.34;6245979;22;20034;-74
2023/04/27 07:00:12;;;;;;;0.00;0.00;;;;;;;10.16;69.44;100294.78;6275466;22;20007;-74
2023/04/27 07:02:37;;;;;;;0.00;0.00;;;;;;;10.33;69.49;100326.56;6273485;22;20108;-75
2023/04/27 07:05:03;;;;;;;0.00;0.00;;;;;;;10.16;69.56;100310.34;6277616;22;20406;-76
2023/04/27 07:07:28;;;;;;;0.00;0.00;;;;;;;10.19;69.65;100316.13;6272134;22;20055;-74
2023/04/27 07:09:56;;;;;;;0.00;0.00;;;;;;;10.19;69.89;100316.13;6249882;22;20085;-74
2023/04/27 07:12:22;;;;;;;0.00;0.00;;;;;;;10.25;69.65;100326.00;6245284;22;20058;-74
2023/04/27 07:14:49;;;;;;;0.00;0.00;;;;;;;10.26;70.02;100333.09;6300830;22;19999;-74
2023/04/27 07:17:15;;;;;;;0.00;0.00;;;;;;;10.21;69.74;100299.47;6265446;22;20073;-74
2023/04/27 07:19:56;;;;;;;0.00;0.00;;;;;;;10.29;70.18;100305.25;6267209;22;20003;-74
2023/04/27 07:22:22;;;;;;;0.00;0.00;;;;;;;10.56;69.94;100304.28;6272502;22;20007;-75
2023/04/27 07:24:57;;;;;;;0.00;0.00;;;;;;;10.76;70.03;100289.00;6239425;22;20133;-76
2023/04/27 07:27:25;;;;;;;0.00;0.00;;;;;;;10.87;69.43;100287.94;6221371;22;20007;-74
2023/04/27 07:30:02;;;;;;;0.00;0.00;;;;;;;10.89;68.94;100285.72;6267884;22;20007;-75
2023/04/27 07:32:32;;;;;;;0.00;0.00;;;;;;;10.85;69.21;100278.34;6219735;22;20016;-77
2023/04/27 07:35:01;;;;;;;0.00;0.00;;;;;;;10.87;69.25;100266.03;6234171;22;20329;-76
2023/04/27 07:37:31;;;;;;;0.00;0.00;;;;;;;11.00;68.59;100270.97;6245895;22;20004;-77
2023/04/27 07:40:15;;;;;;;0.00;0.00;;;;;;;11.03;68.53;100269.63;6216612;22;20058;-74
2023/04/27 07:42:47;;;;;;;0.00;0.00;;;;;;;11.16;68.86;100268.25;6220889;22;20014;-76
2023/04/27 07:45:12;;;;;;;0.03;0.03;;;;;;;11.11;69.05;100254.56;6242658;22;20090;-76
2023/04/27 07:47:53;;;;;;;;;;;;;;;;;;;;;
2023/04/27 07:50:23;;;;;;;0.00;0.00;;;;;;;11.54;68.04;100257.81;6243367;22;20494;-76
2023/04/27 07:52:48;;;;;;;0.00;0.00;;;;;;;11.68;67.42;100247.94;6218624;22;20372;-77
2023/04/27 07:55:16;;;;;;;0.00;0.00;;;;;;;11.85;66.31;100239.38;6271896;22;20004;-76
2023/04/27 07:57:50;;;;;;;0.00;0.00;;;;;;;11.83;65.95;100249.00;6214932;22;20487;-74
2023/04/27 08:00:16;;;;;;;0.00;0.00;;;;;;;11.68;66.08;100258.03;6244274;22;20008;-75
2023/04/27 08:02:46;;;;;;;0.00;0.00;;;;;;;11.58;66.31;100253.44;6244011;22;20011;-74
2023/04/27 08:05:22;;;;;;;0.00;0.00;;;;;;;11.55;66.30;100248.50;6214635;22;20493;-74
2023/04/27 08:07:56;;;;;;;0.00;0.00;;;;;;;11.56;66.50;100255.59;6271784;22;20008;-75
2023/04/27 08:11:01;;;;;;;0.00;0.00;;;;;;;11.41;66.00;100231.81;6239320;22;20007;-74
2023/04/27 08:13:34;;;;;;;;;;;;;;;11.68;66.77;100258.88;6248331;22;20004;-75
2023/04/27 08:16:02;;;;;;;0.00;0.00;;;;;;;11.74;65.54;100245.16;6242320;22;19961;-74
2023/04/27 08:18:30;;;;;;;0.00;0.00;;;;;;;11.96;66.05;100251.16;6221926;22;20008;-76
2023/04/27 08:20:55;;;;;;;0.00;0.00;;;;;;;11.99;65.39;100234.16;6241557;22;20405;-76
2023/04/27 08:23:41;;;;;;;0.00;0.00;;;;;;;12.15;65.10;100262.31;6248270;22;20007;-78
2023/04/27 08:26:17;;;;;;;;;;;;;;;;;;;;;
2023/04/27 08:28:43;;;;;;;0.00;0.00;;;;;;;12.12;64.78;100223.69;6249486;22;20083;-78
2023/04/27 08:31:08;;;;;;;0.00;0.00;;;;;;;12.20;64.04;100245.03;6215165;22;20031;-79
2023/04/27 08:33:36;;;;;;;0.00;0.00;;;;;;;11.92;63.90;100230.88;6245171;22;20107;-79
2023/04/27 08:36:08;;;;;;;0.00;0.00;;;;;;;11.96;64.47;100259.38;6217208;22;20011;-78
2023/04/27 08:38:42;;;;;;;0.00;0.00;;;;;;;11.83;64.67;100249.78;6246761;22;20003;-80
2023/04/27 08:41:10;;;;;;;0.00;0.00;;;;;;;11.92;64.60;100225.38;6191506;22;20035;-79
2023/04/27 08:43:38;;;;;;;0.00;0.00;;;;;;;12.18;63.94;100239.84;6221183;22;20020;-78
2023/04/27 08:46:32;;;;;;;0.00;0.00;;;;;;;12.39;63.84;100250.69;6220354;22;20104;-78
2023/04/27 08:49:10;;;;;;;;;;;;;;;;;;;;;
2023/04/27 08:51:42;;;;;;;0.00;0.00;;;;;;;12.27;64.06;100253.78;6246724;22;20082;-79
2023/04/27 08:54:07;;;;;;;0.00;0.00;;;;;;;12.13;63.99;100222.59;6268671;22;20716;-79
2023/04/27 08:56:42;;;;;;;0.00;0.00;;;;;;;12.21;64.02;100227.50;6271790;22;20003;-79
2023/04/27 08:59:12;;;;;;;;;;;;;;;12.44;63.84;100241.63;6216943;22;21103;-80
2023/04/27 09:01:48;;;;;;;0.00;0.00;;;;;;;12.74;62.66;100224.97;6271764;22;19960;-79
2023/04/27 09:04:17;;;;;;;0.00;0.00;;;;;;;12.99;62.07;100208.59;6240886;22;20047;-79
2023/04/27 09:06:55;;;;;;;;;;;;;;;;;;;;;
2023/04/27 09:09:22;;;;;;;0.00;0.00;;;;;;;13.56;59.80;100200.66;6268386;22;20106;-79
2023/04/27 09:11:48;;;;;;;0.00;0.00;;;;;;;13.61;59.12;100198.69;6244197;22;20010;-79
2023/04/27 09:14:20;;;;;;;0.00;0.00;;;;;;;14.04;58.42;100217.13;6244952;22;20011;-79
2023/04/27 09:16:54;;;;;;;0.00;0.00;;;;;;;14.37;57.61;100214.50;6272623;22;20342;-79
2023/04/27 09:19:27;;;;;;;0.00;0.00;;;;;;;14.83;56.36;100202.84;6218282;22;20014;-78
2023/04/27 09:22:04;;;;;;;0.00;0.00;;;;;;;14.82;55.19;100206.72;6247529;22;20030;-80
2023/04/27 09:24:35;;;;;;;0.00;0.00;;;;;;;14.71;55.35;100191.47;6218678;22;20035;-80
2023/04/27 09:27:24;;;;;;;0.00;0.00;;;;;;;14.63;55.55;100200.38;6202621;22;20000;-79
2023/04/27 09:30:21;;;;;;;0.00;0.00;;;;;;;14.49;55.99;100195.59;6229747;22;20053;-79
2023/04/27 09:39:00;;;;;;;0.00;0.00;;;;;;;14.48;55.51;100169.22;6037192;23;20099;-81
2023/04/27 09:41:32;;;;;;;0.00;0.00;;;;;;;14.27;55.91;100162.41;6238543;22;20094;-79
2023/04/27 09:44:16;;;;;;;0.00;0.00;;;;;;;14.16;56.39;100174.66;6246611;22;20015;-80
2023/04/27 09:46:49;;;;;;;0.00;0.00;;;;;;;14.50;56.94;100185.44;6247740;22;20000;-82
2023/04/27 09:49:16;;;;;;;0.00;0.00;;;;;;;14.59;56.16;100172.63;6219639;22;20007;-80
2023/04/27 09:51:44;;;;;;;0.00;0.00;;;;;;;14.57;55.87;100185.03;6246173;22;19996;-80
2023/04/27 09:54:23;;;;;;;0.00;0.00;;;;;;;14.39;56.48;100168.25;6241586;22;20011;-81
2023/04/27 09:57:23;;;;;;;0.00;0.00;;;;;;;14.75;56.03;100145.72;6222545;22;20454;-80
2023/04/27 10:00:09;;;;;;;0.00;0.00;;;;;;;15.25;55.04;100183.66;6248511;22;20006;-80
2023/04/27 10:06:28;;;;;;;0.00;0.00;;;;;;;14.32;55.92;100187.91;6161437;23;20033;-79
2023/04/27 10:08:58;;;;;;;0.00;0.00;;;;;;;13.90;57.50;100183.22;6246980;22;20037;-79
2023/04/27 10:11:39;;;;;;;0.00;0.00;;;;;;;13.52;58.40;100161.13;6242196;22;20004;-79
2023/04/27 10:14:20;;;;;;;0.00;0.00;;;;;;;13.34;58.98;100160.78;6245473;22;20003;-81
2023/04/27 10:17:09;;;;;;;0.00;0.00;;;;;;;13.12;60.21;100157.69;6254995;22;20016;-78
2023/04/27 10:19:35;;;;;;;0.00;0.00;;;;;;;12.95;61.25;100174.59;6266927;22;20010;-79
2023/04/27 10:22:06;;;;;;;0.00;0.00;;;;;;;12.87;61.96;100185.06;6221958;22;20008;-79
2023/04/27 10:24:48;;;;;;;;;;;;;;;;;;;;;
2023/04/27 10:27:21;;;;;;;0.00;0.00;;;;;;;12.70;62.22;100190.16;6274568;22;20090;-80
2023/04/27 10:30:00;;;;;;;0.00;0.00;;;;;;;12.35;62.71;100151.75;6270230;22;20004;-80
2023/04/27 10:32:33;;;;;;;0.00;0.00;;;;;;;12.38;63.49;100172.28;6270904;22;20095;-78
2023/04/27 10:35:07;;;;;;;0.00;0.00;;;;;;;12.23;63.88;100170.44;6269468;22;20007;-81
2023/04/27 10:37:52;;;;;;;;;;;;;;;;;;;;;
2023/04/27 10:40:45;;;;;;;0.00;0.00;;;;;;;12.33;64.43;100175.88;6271321;22;20086;-80
2023/04/27 10:43:45;;;;;;;;;;;;;;;;;;;;;
2023/04/27 10:46:45;;;;;;;;;;;;;;;;;;;;;
2023/04/27 10:49:25;;;;;;;;;;;;;;;;;;;;;
2023/04/27 10:52:03;;;;;;;0.00;0.00;;;;;;;12.63;63.85;100167.72;6274321;22;20373;-80
2023/04/27 10:54:46;;;;;;;0.00;0.00;;;;;;;12.56;64.21;100157.88;6272425;22;20037;-82
2023/04/27 10:57:15;;;;;;;0.00;0.00;;;;;;;12.63;64.53;100187.75;6268480;22;20573;-80
2023/04/27 11:00:09;;;;;;;0.00;0.00;;;;;;;12.55;65.05;100183.66;6274696;22;20437;-80
2023/04/27 11:02:46;;;;;;;0.00;0.00;;;;;;;12.60;64.81;100168.28;6271777;22;20057;-81
2023/04/27 11:05:47;;;;;;;;;;;;;;;;;;;;;
2023/04/27 11:08:16;;;;;;;0.00;0.00;;;;;;;13.01;63.51;100157.78;6255750;22;20103;-75
2023/04/27 11:10:54;;;;;;;0.00;0.00;;;;;;;13.03;63.78;100147.34;6270830;22;20057;-75
2023/04/27 11:13:38;;;;;;;0.00;0.00;;;;;;;13.26;63.69;100153.16;6272305;22;20369;-76
2023/04/27 11:16:04;;;;;;;0.00;0.00;;;;;;;13.43;63.11;100130.75;6268576;22;20047;-79
2023/04/27 11:18:41;;;;;;;0.00;0.00;;;;;;;13.70;62.44;100113.66;6272710;22;20011;-80
2023/04/27 11:21:27;;;;;;;0.00;0.00;;;;;;;14.17;61.14;100137.78;6268370;22;19995;-79
2023/04/27 11:23:53;;;;;;;0.00;0.00;;;;;;;13.95;60.71;100114.44;6275657;22;20007;-78
2023/04/27 11:26:20;;;;;;;0.00;0.00;;;;;;;13.88;60.69;100092.81;6216779;22;20004;-77
2023/04/27 11:29:03;;;;;;;0.00;0.00;;;;;;;14.31;60.86;100094.69;6273402;22;20004;-79
2023/04/27 11:37:51;;;;;;;;;;;;;;;;;;;;;
2023/04/27 11:40:29;;;;;;;;;;;;;;;;;;;;;
2023/04/27 11:42:58;;;;;;;0.00;0.00;;;;;;;14.00;62.19;100067.63;6272212;22;20449;-76
2023/04/27 11:45:35;;;;;;;0.00;0.00;;;;;;;13.90;62.97;100084.25;6265412;22;20019;-75
2023/04/27 11:48:29;;;;;;;0.00;0.00;;;;;;;13.70;64.27;100086.19;6267631;22;20003;-77
2023/04/27 11:51:02;;;;;;;0.00;0.00;;;;;;;13.42;65.00;100046.75;6259011;22;20059;-77
2023/04/27 11:53:41;;;;;;;0.00;0.00;;;;;;;13.61;64.14;100071.50;6273849;22;20090;-79
2023/04/27 11:56:14;;;;;;;0.00;0.00;;;;;;;13.30;64.37;100043.56;6296044;22;20029;-80
2023/04/27 11:58:39;;;;;;;0.00;0.00;;;;;;;13.39;64.93;100061.88;6273446;22;20038;-79
2023/04/27 12:01:43;;;;;;;0.00;0.00;;;;;;;13.29;64.86;100031.75;6270171;22;20001;-76
2023/04/27 12:04:19;;;;;;;0.00;0.00;;;;;;;13.42;64.74;100074.19;6265483;22;20102;-78
2023/04/27 12:06:49;;;;;;;0.00;0.00;;;;;;;13.34;64.67;100070.16;6242620;22;20751;-79
2023/04/27 12:09:22;;;;;;;0.00;0.00;;;;;;;13.26;64.68;100043.34;6237699;22;20026;-79
2023/04/27 12:11:50;;;;;;;0.00;0.00;;;;;;;13.35;64.79;100049.84;6236943;22;20015;-76
2023/04/27 12:14:32;;;;;;;0.00;0.00;;;;;;;13.42;64.71;100030.25;6263059;22;20003;-76
2023/04/27 12:16:58;;;;;;;0.00;0.00;;;;;;;13.65;64.38;100058.78;6269633;22;20464;-76